Time;durP1;ratioP1;P1;durP2;ratioP2;P2;SDS_P1;SDS_P2;PMS_P1;PMS_P2;Temp;Humidity;BMP_temperature;BMP_pressure;BME280_temperature;BME280_humidity;BME280_pressure;Samples;Min_cycle;Max_cycle;Signal;HPM_P1;HPM_P2
2022/04/23 00:01:09;;;;;;;13.85;10.25;;;;;;;;;;6308574;22;20139;-63
2022/04/23 00:03:35;;;;;;;15.00;10.10;;;;;;;;;;6309062;22;20143;-63
2022/04/23 00:06:01;;;;;;;18.38;10.15;;;;;;;;;;6309386;22;20443;-63
2022/04/23 00:08:27;;;;;;;15.35;10.40;;;;;;;;;;6309621;22;20190;-63
2022/04/23 00:10:53;;;;;;;17.90;10.48;;;;;;;;;;6308452;22;20424;-63
2022/04/23 00:13:19;;;;;;;15.48;10.32;;;;;;;;;;6308596;22;20162;-63
2022/04/23 00:15:45;;;;;;;15.77;10.27;;;;;;;;;;6308826;22;20151;-62
2022/04/23 00:18:11;;;;;;;15.57;10.57;;;;;;;;;;6308690;22;20217;-62
2022/04/23 00:20:38;;;;;;;14.75;9.82;;;;;;;;;;6309860;22;20151;-63
2022/04/23 00:23:05;;;;;;;14.85;9.55;;;;;;;;;;6308681;22;20170;-63
2022/04/23 00:25:31;;;;;;;13.30;9.38;;;;;;;;;;6308772;22;20549;-63
2022/04/23 00:27:57;;;;;;;14.20;10.20;;;;;;;;;;6308337;22;20185;-63
2022/04/23 00:30:23;;;;;;;14.73;9.55;;;;;;;;;;6307922;22;20229;-63
2022/04/23 00:32:49;;;;;;;13.60;9.63;;;;;;;;;;6308356;22;20446;-63
2022/04/23 00:35:15;;;;;;;14.98;9.32;;;;;;;;;;6308263;22;20627;-63
2022/04/23 00:37:42;;;;;;;15.82;10.30;;;;;;;;;;6308641;22;20200;-63
2022/04/23 00:40:08;;;;;;;15.25;9.65;;;;;;;;;;6308676;22;20550;-62
2022/04/23 00:42:45;;;;;;;12.85;9.50;;;;;;;;;;6308220;22;20179;-63
2022/04/23 00:45:11;;;;;;;12.65;9.35;;;;;;;;;;6308536;22;20526;-63
2022/04/23 00:47:38;;;;;;;16.10;10.45;;;;;;;;;;6308092;22;20226;-62
2022/04/23 00:50:04;;;;;;;16.67;10.23;;;;;;;;;;6308740;22;20135;-63
2022/04/23 00:52:32;;;;;;;18.80;10.25;;;;;;;;;;6308514;22;20448;-61
2022/04/23 00:54:58;;;;;;;14.65;9.43;;;;;;;;;;6308975;22;20153;-61
2022/04/23 00:57:24;;;;;;;14.00;9.70;;;;;;;;;;6308553;22;20171;-61
2022/04/23 00:59:50;;;;;;;15.40;10.48;;;;;;;;;;6308547;22;20142;-62
2022/04/23 01:02:16;;;;;;;15.32;10.18;;;;;;;;;;6308686;22;20143;-62
2022/04/23 01:04:42;;;;;;;19.95;9.93;;;;;;;;;;6308137;22;20182;-62
2022/04/23 01:07:11;;;;;;;17.00;10.82;;;;;;;;;;6308025;22;20146;-62
2022/04/23 01:09:36;;;;;;;16.80;10.63;;;;;;;;;;6308374;22;20190;-63
2022/04/23 01:12:03;;;;;;;17.17;10.82;;;;;;;;;;6308012;22;20146;-63
2022/04/23 01:14:29;;;;;;;17.15;10.55;;;;;;;;;;6308501;22;20135;-63
2022/04/23 01:16:55;;;;;;;17.73;10.88;;;;;;;;;;6308386;22;20154;-62
2022/04/23 01:19:22;;;;;;;16.80;10.85;;;;;;;;;;6308144;22;20143;-63
2022/04/23 01:21:48;;;;;;;16.35;10.20;;;;;;;;;;6308345;22;20147;-63
2022/04/23 01:24:15;;;;;;;15.88;10.77;;;;;;;;;;6308025;22;20569;-63
2022/04/23 01:26:40;;;;;;;16.02;10.30;;;;;;;;;;6307900;22;20147;-63
2022/04/23 01:29:06;;;;;;;15.10;10.82;;;;;;;;;;6308159;22;20170;-63
2022/04/23 01:31:33;;;;;;;16.52;11.10;;;;;;;;;;6308328;22;20162;-63
2022/04/23 01:33:59;;;;;;;18.73;11.75;;;;;;;;;;6307883;22;20135;-62
2022/04/23 01:36:25;;;;;;;17.80;10.60;;;;;;;;;;6308473;22;20215;-63
2022/04/23 01:38:51;;;;;;;17.13;10.95;;;;;;;;;;6307920;22;20217;-63
2022/04/23 01:41:17;;;;;;;22.27;12.32;;;;;;;;;;6308982;22;20201;-62
2022/04/23 01:43:43;;;;;;;18.85;11.45;;;;;;;;;;6310033;22;20143;-63
2022/04/23 01:46:09;;;;;;;19.40;12.07;;;;;;;;;;6310868;22;20222;-63
2022/04/23 01:48:35;;;;;;;17.33;11.00;;;;;;;;;;6310323;22;20191;-63
2022/04/23 01:51:01;;;;;;;18.55;11.73;;;;;;;;;;6309971;22;20561;-63
2022/04/23 01:53:27;;;;;;;18.52;11.68;;;;;;;;;;6310364;22;20213;-62
2022/04/23 01:55:54;;;;;;;19.38;11.88;;;;;;;;;;6309900;22;20558;-63
2022/04/23 01:58:21;;;;;;;19.10;11.00;;;;;;;;;;6310143;22;20174;-62
2022/04/23 02:00:48;;;;;;;19.20;11.48;;;;;;;;;;6310412;22;20157;-63
2022/04/23 02:03:13;;;;;;;17.65;12.07;;;;;;;;;;6310263;22;20219;-63
2022/04/23 02:05:39;;;;;;;16.58;11.95;;;;;;;;;;6309869;22;20617;-63
2022/04/23 02:08:06;;;;;;;18.95;11.75;;;;;;;;;;6310237;22;20224;-63
2022/04/23 02:10:32;;;;;;;15.80;11.30;;;;;;;;;;6310188;22;20139;-63
2022/04/23 02:12:58;;;;;;;23.48;12.15;;;;;;;;;;6309834;22;20145;-63
2022/04/23 02:15:24;;;;;;;16.63;11.77;;;;;;;;;;6309713;22;20176;-63
2022/04/23 02:17:50;;;;;;;18.23;11.98;;;;;;;;;;6309952;22;20501;-62
2022/04/23 02:20:17;;;;;;;16.83;11.05;;;;;;;;;;6309962;22;20139;-63
2022/04/23 02:22:44;;;;;;;18.13;11.82;;;;;;;;;;6309831;22;20153;-63
2022/04/23 02:25:11;;;;;;;21.30;12.15;;;;;;;;;;6309933;22;20151;-60
2022/04/23 02:27:44;;;;;;;22.45;12.30;;;;;;;;;;6309765;22;20277;-63
2022/04/23 02:30:10;;;;;;;19.10;12.40;;;;;;;;;;6309504;22;20162;-63
2022/04/23 02:32:36;;;;;;;17.40;11.73;;;;;;;;;;6309786;22;20143;-63
2022/04/23 02:35:04;;;;;;;21.73;12.73;;;;;;;;;;6309706;22;20226;-62
2022/04/23 02:37:34;;;;;;;17.35;12.00;;;;;;;;;;6309921;22;20151;-63
2022/04/23 02:40:00;;;;;;;23.67;12.27;;;;;;;;;;6313999;22;20198;-63
2022/04/23 02:42:26;;;;;;;21.83;12.48;;;;;;;;;;6313790;22;20585;-62
2022/04/23 02:44:52;;;;;;;19.58;12.77;;;;;;;;;;6311251;22;20171;-62
2022/04/23 02:47:18;;;;;;;22.25;13.40;;;;;;;;;;6310250;22;20143;-63
2022/04/23 02:49:44;;;;;;;23.15;12.35;;;;;;;;;;6309941;22;20437;-62
2022/04/23 02:52:10;;;;;;;20.73;12.35;;;;;;;;;;6309835;22;20139;-63
2022/04/23 02:54:38;;;;;;;21.42;12.43;;;;;;;;;;6309678;22;20146;-63
2022/04/23 02:57:04;;;;;;;21.05;12.77;;;;;;;;;;6309826;22;20146;-62
2022/04/23 02:59:30;;;;;;;20.15;13.20;;;;;;;;;;6310208;22;20147;-63
2022/04/23 03:01:56;;;;;;;20.65;13.52;;;;;;;;;;6310003;22;20217;-62
2022/04/23 03:04:22;;;;;;;19.80;12.98;;;;;;;;;;6309772;22;20139;-62
2022/04/23 03:06:48;;;;;;;21.48;12.77;;;;;;;;;;6309918;22;20143;-62
2022/04/23 03:09:14;;;;;;;20.67;12.43;;;;;;;;;;6309207;22;20632;-62
2022/04/23 03:11:39;;;;;;;21.80;12.65;;;;;;;;;;6309463;22;20146;-62
2022/04/23 03:14:06;;;;;;;18.02;12.82;;;;;;;;;;6309760;22;20139;-62
2022/04/23 03:16:32;;;;;;;21.50;13.63;;;;;;;;;;6309824;22;20158;-62
2022/04/23 03:18:57;;;;;;;23.55;13.38;;;;;;;;;;6309640;22;20456;-63
2022/04/23 03:21:23;;;;;;;23.05;13.43;;;;;;;;;;6310345;22;20139;-61
2022/04/23 03:23:49;;;;;;;22.65;13.77;;;;;;;;;;6309362;22;20171;-61
2022/04/23 03:26:15;;;;;;;23.30;13.95;;;;;;;;;;6309208;22;20168;-62
2022/04/23 03:28:41;;;;;;;21.80;12.90;;;;;;;;;;6308892;22;20167;-61
2022/04/23 03:31:08;;;;;;;23.05;13.32;;;;;;;;;;6309330;22;20194;-63
2022/04/23 03:33:34;;;;;;;23.27;13.68;;;;;;;;;;6308803;22;20441;-61
2022/04/23 03:36:01;;;;;;;21.88;13.25;;;;;;;;;;6308998;22;20197;-63
2022/04/23 03:38:27;;;;;;;23.80;13.38;;;;;;;;;;6308851;22;20143;-63
2022/04/23 03:40:56;;;;;;;25.50;14.35;;;;;;;;;;6308928;22;20417;-63
2022/04/23 03:43:22;;;;;;;22.52;13.23;;;;;;;;;;6308779;22;20166;-63
2022/04/23 03:45:48;;;;;;;20.92;13.60;;;;;;;;;;6308881;22;20139;-62
2022/04/23 03:48:14;;;;;;;20.05;12.43;;;;;;;;;;6308754;22;20209;-62
2022/04/23 03:50:41;;;;;;;21.58;13.32;;;;;;;;;;6308822;22;20154;-63
2022/04/23 03:53:08;;;;;;;23.00;13.57;;;;;;;;;;6309140;22;20139;-62
2022/04/23 03:55:34;;;;;;;21.40;13.57;;;;;;;;;;6308744;22;20638;-62
2022/04/23 03:58:01;;;;;;;22.52;14.38;;;;;;;;;;6308761;22;20228;-63
2022/04/23 04:00:28;;;;;;;22.65;14.05;;;;;;;;;;6309025;22;20189;-63
2022/04/23 04:02:54;;;;;;;24.27;14.13;;;;;;;;;;6309036;22;20208;-63
2022/04/23 04:05:20;;;;;;;22.75;13.63;;;;;;;;;;6308705;22;20151;-63
2022/04/23 04:07:47;;;;;;;26.33;14.68;;;;;;;;;;6308493;22;20149;-63
2022/04/23 04:10:14;;;;;;;22.63;14.45;;;;;;;;;;6308572;22;20230;-62
2022/04/23 04:12:40;;;;;;;23.63;14.57;;;;;;;;;;6308662;22;20629;-63
2022/04/23 04:15:07;;;;;;;24.25;14.45;;;;;;;;;;6308527;22;20550;-63
2022/04/23 04:17:34;;;;;;;23.60;13.68;;;;;;;;;;6309178;22;20412;-62
2022/04/23 04:19:59;;;;;;;23.80;13.50;;;;;;;;;;6320097;22;20143;-63
2022/04/23 04:22:26;;;;;;;23.00;14.00;;;;;;;;;;6327065;22;20174;-63
2022/04/23 04:24:52;;;;;;;28.88;15.18;;;;;;;;;;6327375;22;20139;-62
2022/04/23 04:27:17;;;;;;;26.52;15.80;;;;;;;;;;6327423;22;20149;-63
2022/04/23 04:29:43;;;;;;;26.70;15.95;;;;;;;;;;6320699;22;20181;-62
2022/04/23 04:32:10;;;;;;;24.52;15.55;;;;;;;;;;6309422;22;20139;-62
2022/04/23 04:34:35;;;;;;;25.92;15.07;;;;;;;;;;6308751;22;20150;-62
2022/04/23 04:37:01;;;;;;;23.98;15.15;;;;;;;;;;6308524;22;20135;-64
2022/04/23 04:39:27;;;;;;;26.70;16.02;;;;;;;;;;6308403;22;20139;-63
2022/04/23 04:41:53;;;;;;;23.45;15.50;;;;;;;;;;6308465;22;20525;-63
2022/04/23 04:44:19;;;;;;;24.27;15.88;;;;;;;;;;6308639;22;20204;-61
2022/04/23 04:46:45;;;;;;;22.70;14.82;;;;;;;;;;6308757;22;20139;-61
2022/04/23 04:49:11;;;;;;;31.60;17.33;;;;;;;;;;6308368;22;20159;-61
2022/04/23 04:51:37;;;;;;;26.08;16.05;;;;;;;;;;6308813;22;20470;-61
2022/04/23 04:54:04;;;;;;;26.17;16.35;;;;;;;;;;6308317;22;20140;-62
2022/04/23 04:56:30;;;;;;;25.50;16.98;;;;;;;;;;6308574;22;20223;-61
2022/04/23 04:58:56;;;;;;;32.67;17.58;;;;;;;;;;6308604;22;20150;-61
2022/04/23 05:01:22;;;;;;;26.40;15.68;;;;;;;;;;6308411;22;20139;-61
2022/04/23 05:03:48;;;;;;;25.17;16.17;;;;;;;;;;6308264;22;20207;-61
2022/04/23 05:06:14;;;;;;;28.38;16.02;;;;;;;;;;6307993;22;20213;-61
2022/04/23 05:08:40;;;;;;;24.45;15.77;;;;;;;;;;6308125;22;20591;-61
2022/04/23 05:11:06;;;;;;;27.58;15.32;;;;;;;;;;6308043;22;20214;-61
2022/04/23 05:13:32;;;;;;;24.23;15.45;;;;;;;;;;6308546;22;20214;-62
2022/04/23 05:15:58;;;;;;;25.30;16.10;;;;;;;;;;6307908;22;20166;-62
2022/04/23 05:18:24;;;;;;;26.38;16.05;;;;;;;;;;6308504;22;20534;-62
2022/04/23 05:20:50;;;;;;;21.45;14.70;;;;;;;;;;6308010;22;20142;-62
2022/04/23 05:23:16;;;;;;;27.77;15.30;;;;;;;;;;6308043;22;20619;-61
2022/04/23 05:25:42;;;;;;;24.65;14.73;;;;;;;;;;6307998;22;20231;-61
2022/04/23 05:28:08;;;;;;;26.08;15.32;;;;;;;;;;6307764;22;20187;-62
2022/04/23 05:30:38;;;;;;;23.83;13.80;;;;;;;;;;6307833;22;20155;-61
2022/04/23 05:33:07;;;;;;;22.80;14.35;;;;;;;;;;6308345;22;20139;-61
2022/04/23 05:35:33;;;;;;;20.15;13.75;;;;;;;;;;6307852;22;20256;-60
2022/04/23 05:37:59;;;;;;;21.50;14.02;;;;;;;;;;6308280;22;20139;-61
2022/04/23 05:40:25;;;;;;;21.48;13.75;;;;;;;;;;6308167;22;20139;-62
2022/04/23 05:42:55;;;;;;;25.50;14.38;;;;;;;;;;6311381;22;20170;-63
2022/04/23 05:45:22;;;;;;;22.67;12.98;;;;;;;;;;6315928;22;20558;-61
2022/04/23 05:47:48;;;;;;;20.27;12.82;;;;;;;;;;6309765;22;20143;-61
2022/04/23 05:50:14;;;;;;;24.23;14.32;;;;;;;;;;6311434;22;20471;-62
2022/04/23 05:52:40;;;;;;;19.80;12.77;;;;;;;;;;6307813;22;20439;-62
2022/04/23 05:55:06;;;;;;;19.15;12.98;;;;;;;;;;6308070;22;20154;-62
2022/04/23 05:57:32;;;;;;;21.83;13.25;;;;;;;;;;6308208;22;20143;-62
2022/04/23 05:59:58;;;;;;;17.75;12.20;;;;;;;;;;6307693;22;20157;-62
2022/04/23 06:02:24;;;;;;;18.17;12.50;;;;;;;;;;6307784;22;20513;-62
2022/04/23 06:04:50;;;;;;;20.00;11.90;;;;;;;;;;6307647;22;20157;-62
2022/04/23 06:07:16;;;;;;;17.50;12.90;;;;;;;;;;6307908;22;20222;-61
2022/04/23 06:09:42;;;;;;;21.25;12.32;;;;;;;;;;6307690;22;20159;-63
2022/04/23 06:12:08;;;;;;;18.35;12.45;;;;;;;;;;6308076;22;20147;-63
2022/04/23 06:14:34;;;;;;;16.85;12.55;;;;;;;;;;6307803;22;20264;-63
2022/04/23 06:17:00;;;;;;;16.42;11.63;;;;;;;;;;6307709;22;20171;-62
2022/04/23 06:19:26;;;;;;;15.95;11.60;;;;;;;;;;6307827;22;20153;-63
2022/04/23 06:21:52;;;;;;;15.70;12.15;;;;;;;;;;6307969;22;20149;-63
2022/04/23 06:24:18;;;;;;;15.98;12.13;;;;;;;;;;6307675;22;20510;-61
2022/04/23 06:26:45;;;;;;;19.83;11.98;;;;;;;;;;6307974;22;20147;-62
2022/04/23 06:29:11;;;;;;;16.92;11.60;;;;;;;;;;6309326;22;20253;-62
2022/04/23 06:31:37;;;;;;;18.58;11.70;;;;;;;;;;6310216;22;20459;-62
2022/04/23 06:34:03;;;;;;;18.83;11.82;;;;;;;;;;6310282;22;20147;-62
2022/04/23 06:36:29;;;;;;;17.10;11.45;;;;;;;;;;6310245;22;20139;-62
2022/04/23 06:38:55;;;;;;;15.40;10.95;;;;;;;;;;6309528;22;20143;-63
2022/04/23 06:41:20;;;;;;;14.73;11.38;;;;;;;;;;6309750;22;20230;-62
2022/04/23 06:43:46;;;;;;;14.77;11.45;;;;;;;;;;6309514;22;20417;-63
2022/04/23 06:46:12;;;;;;;17.88;11.48;;;;;;;;;;6309368;22;20195;-63
2022/04/23 06:48:38;;;;;;;13.73;11.35;;;;;;;;;;6309998;22;20193;-63
2022/04/23 06:51:04;;;;;;;16.25;10.82;;;;;;;;;;6309995;22;20139;-62
2022/04/23 06:53:30;;;;;;;13.65;11.00;;;;;;;;;;6309790;22;20242;-62
2022/04/23 06:55:56;;;;;;;17.20;11.15;;;;;;;;;;6309219;22;20139;-62
2022/04/23 06:58:22;;;;;;;14.98;11.02;;;;;;;;;;6309271;22;20143;-62
2022/04/23 07:00:48;;;;;;;15.80;11.68;;;;;;;;;;6309576;22;20169;-62
2022/04/23 07:03:14;;;;;;;14.95;11.27;;;;;;;;;;6309208;22;20542;-62
2022/04/23 07:05:40;;;;;;;12.38;9.95;;;;;;;;;;6309432;22;20157;-62
2022/04/23 07:08:06;;;;;;;14.73;10.45;;;;;;;;;;6309245;22;20499;-62
2022/04/23 07:10:33;;;;;;;12.55;10.20;;;;;;;;;;6309460;22;20162;-61
2022/04/23 07:12:59;;;;;;;13.80;11.10;;;;;;;;;;6309285;22;20138;-61
2022/04/23 07:15:26;;;;;;;13.27;10.45;;;;;;;;;;6309722;22;20181;-63
2022/04/23 07:17:52;;;;;;;11.88;9.98;;;;;;;;;;6309364;22;20135;-62
2022/04/23 07:20:19;;;;;;;12.68;9.75;;;;;;;;;;6309355;22;20139;-62
2022/04/23 07:25:30;;;;;;;12.85;10.55;;;;;;;;;;6309639;22;20138;-61
2022/04/23 07:27:56;;;;;;;12.55;10.20;;;;;;;;;;6309120;22;20139;-62
2022/04/23 07:30:22;;;;;;;12.77;9.85;;;;;;;;;;6309592;22;20154;-60
2022/04/23 07:32:48;;;;;;;12.52;10.13;;;;;;;;;;6309287;22;20557;-62
2022/04/23 07:38:09;;;;;;;13.38;9.80;;;;;;;;;;6308953;22;20161;-62
2022/04/23 07:40:40;;;;;;;11.88;9.70;;;;;;;;;;6309276;22;20136;-63
2022/04/23 07:43:06;;;;;;;10.90;9.75;;;;;;;;;;6309340;22;20120;-62
2022/04/23 07:45:32;;;;;;;9.77;8.65;;;;;;;;;;6309046;22;20139;-62
2022/04/23 07:47:58;;;;;;;11.68;9.15;;;;;;;;;;6308656;22;20146;-62
2022/04/23 07:50:23;;;;;;;10.68;8.77;;;;;;;;;;6309143;22;20602;-62
2022/04/23 07:52:49;;;;;;;9.80;8.80;;;;;;;;;;6308826;22;20139;-62
2022/04/23 07:55:15;;;;;;;10.05;8.88;;;;;;;;;;6309228;22;20562;-63
2022/04/23 07:57:41;;;;;;;9.98;8.60;;;;;;;;;;6309021;22;20143;-62
2022/04/23 08:00:08;;;;;;;10.43;8.60;;;;;;;;;;6308693;22;20723;-63
2022/04/23 08:02:33;;;;;;;10.65;9.38;;;;;;;;;;6308710;22;20150;-63
2022/04/23 08:04:59;;;;;;;9.68;8.68;;;;;;;;;;6308705;22;20444;-63
2022/04/23 08:07:27;;;;;;;9.60;7.95;;;;;;;;;;6308826;22;20150;-63
2022/04/23 08:09:53;;;;;;;12.43;8.93;;;;;;;;;;6308688;22;20194;-63
2022/04/23 08:12:19;;;;;;;12.05;9.35;;;;;;;;;;6308522;22;20139;-62
2022/04/23 08:14:45;;;;;;;9.43;8.45;;;;;;;;;;6308965;22;20161;-62
2022/04/23 08:17:10;;;;;;;10.90;8.90;;;;;;;;;;6308383;22;20523;-62
2022/04/23 08:19:37;;;;;;;10.23;9.23;;;;;;;;;;6308698;22;20143;-62
2022/04/23 08:22:03;;;;;;;12.32;9.50;;;;;;;;;;6308882;22;20154;-63
2022/04/23 08:24:31;;;;;;;11.05;9.43;;;;;;;;;;6308832;22;20147;-61
2022/04/23 08:26:57;;;;;;;11.98;9.55;;;;;;;;;;6308760;22;20143;-62
2022/04/23 08:32:08;;;;;;;12.75;10.55;;;;;;;;;;6308400;22;20218;-63
2022/04/23 08:34:33;;;;;;;13.60;10.55;;;;;;;;;;6308352;22;20167;-62
2022/04/23 08:36:59;;;;;;;10.68;9.43;;;;;;;;;;6308123;22;20139;-63
2022/04/23 08:39:25;;;;;;;11.05;9.82;;;;;;;;;;6308606;22;20412;-63
2022/04/23 08:41:52;;;;;;;11.10;9.18;;;;;;;;;;6308631;22;20138;-62
2022/04/23 08:44:21;;;;;;;12.00;10.27;;;;;;;;;;6308622;22;20154;-63
2022/04/23 08:46:47;;;;;;;11.15;9.32;;;;;;;;;;6308425;22;20186;-63
2022/04/23 08:49:17;;;;;;;11.30;10.05;;;;;;;;;;6308014;22;20216;-62
2022/04/23 08:51:53;;;;;;;12.93;9.85;;;;;;;;;;6308064;22;20143;-61
2022/04/23 08:54:19;;;;;;;10.73;9.60;;;;;;;;;;6308525;22;20149;-61
2022/04/23 08:56:46;;;;;;;9.85;8.85;;;;;;;;;;6308336;22;20191;-61
2022/04/23 08:59:13;;;;;;;10.57;9.07;;;;;;;;;;6308545;22;20572;-61
2022/04/23 09:01:39;;;;;;;10.18;9.02;;;;;;;;;;6308473;22;20237;-61
2022/04/23 09:04:06;;;;;;;13.23;9.45;;;;;;;;;;6308433;22;20177;-61
2022/04/23 09:06:42;;;;;;;10.85;9.07;;;;;;;;;;6308504;22;20147;-61
2022/04/23 09:09:13;;;;;;;10.40;9.30;;;;;;;;;;6308366;22;20269;-60
2022/04/23 09:11:40;;;;;;;10.52;9.38;;;;;;;;;;6308515;22;20165;-63
2022/04/23 09:14:06;;;;;;;10.75;9.23;;;;;;;;;;6308341;22;20231;-60
2022/04/23 09:25:14;;;;;;;10.00;8.95;;;;;;;;;;6315054;22;20142;-61
2022/04/23 09:27:42;;;;;;;10.70;9.23;;;;;;;;;;6308537;22;20219;-62
2022/04/23 09:30:09;;;;;;;10.35;9.25;;;;;;;;;;6308444;22;20231;-62
2022/04/23 09:32:35;;;;;;;11.13;8.85;;;;;;;;;;6308506;22;20230;-62
2022/04/23 09:35:11;;;;;;;9.98;8.90;;;;;;;;;;6307986;22;20139;-62
2022/04/23 09:40:24;;;;;;;9.30;8.32;;;;;;;;;;6308254;22;20478;-62
2022/04/23 09:42:56;;;;;;;10.10;9.00;;;;;;;;;;6307809;22;20138;-62
2022/04/23 09:45:26;;;;;;;9.57;8.57;;;;;;;;;;6308069;22;20234;-61
2022/04/23 09:47:52;;;;;;;10.77;9.73;;;;;;;;;;6308008;22;20143;-61
2022/04/23 09:50:18;;;;;;;11.25;9.30;;;;;;;;;;6307873;22;20139;-61
2022/04/23 09:52:45;;;;;;;10.13;8.90;;;;;;;;;;6308029;22;20143;-61
2022/04/23 09:55:12;;;;;;;9.23;8.32;;;;;;;;;;6307857;22;20135;-62
2022/04/23 09:57:38;;;;;;;9.55;8.73;;;;;;;;;;6307730;22;20169;-63
2022/04/23 10:00:07;;;;;;;13.30;11.63;;;;;;;;;;6307818;22;20174;-63
2022/04/23 10:02:33;;;;;;;10.65;8.50;;;;;;;;;;6309188;22;20146;-64
2022/04/23 10:05:00;;;;;;;9.50;8.50;;;;;;;;;;6310245;22;20161;-63
2022/04/23 10:07:28;;;;;;;11.43;9.05;;;;;;;;;;6309730;22;20142;-63
2022/04/23 10:09:55;;;;;;;8.57;7.78;;;;;;;;;;6309371;22;20581;-63
2022/04/23 10:12:23;;;;;;;9.32;8.32;;;;;;;;;;6309560;22;20143;-63
2022/04/23 10:15:00;;;;;;;9.82;8.13;;;;;;;;;;6309557;22;20135;-63
2022/04/23 10:17:25;;;;;;;10.73;8.27;;;;;;;;;;6310080;22;20134;-63
2022/04/23 10:19:52;;;;;;;10.43;8.48;;;;;;;;;;6309825;22;20149;-63
2022/04/23 10:22:39;;;;;;;9.13;8.23;;;;;;;;;;6309982;22;20413;-63
2022/04/23 10:25:08;;;;;;;8.60;7.63;;;;;;;;;;6310179;22;20134;-63
2022/04/23 10:27:34;;;;;;;8.80;7.72;;;;;;;;;;6310105;22;20143;-63
2022/04/23 10:30:03;;;;;;;8.02;7.13;;;;;;;;;;6309393;22;20224;-63
2022/04/23 10:32:40;;;;;;;9.60;8.60;;;;;;;;;;6309742;22;20542;-63
2022/04/23 10:35:18;;;;;;;9.80;8.63;;;;;;;;;;6310129;22;20142;-63
2022/04/23 10:37:45;;;;;;;9.35;8.45;;;;;;;;;;6309711;22;20213;-63
2022/04/23 10:40:11;;;;;;;9.60;8.60;;;;;;;;;;6309551;22;20143;-63
2022/04/23 10:42:38;;;;;;;9.95;8.95;;;;;;;;;;6309506;22;20150;-63
2022/04/23 10:45:06;;;;;;;8.45;7.47;;;;;;;;;;6309825;22;20143;-63
2022/04/23 10:47:36;;;;;;;9.93;8.57;;;;;;;;;;6310139;22;20439;-63
2022/04/23 10:50:24;;;;;;;8.68;7.70;;;;;;;;;;6309515;22;20531;-63
2022/04/23 10:52:53;;;;;;;9.05;7.78;;;;;;;;;;6309871;22;20137;-63
2022/04/23 10:55:20;;;;;;;9.45;7.90;;;;;;;;;;6310094;22;20166;-63
2022/04/23 10:57:52;;;;;;;8.65;7.75;;;;;;;;;;6310396;22;20545;-63
2022/04/23 11:00:19;;;;;;;9.60;7.50;;;;;;;;;;6309886;22;20175;-63
2022/04/23 11:02:49;;;;;;;8.85;7.32;;;;;;;;;;6309975;22;20147;-63
2022/04/23 11:13:53;;;;;;;7.15;6.45;;;;;;;;;;6308970;22;20137;-64
2022/04/23 11:16:21;;;;;;;7.53;5.68;;;;;;;;;;6309466;22;20135;-63
2022/04/23 11:18:49;;;;;;;6.75;5.95;;;;;;;;;;6309508;22;20195;-64
2022/04/23 11:21:29;;;;;;;6.32;5.72;;;;;;;;;;6309556;22;20212;-63
2022/04/23 11:23:56;;;;;;;6.70;6.00;;;;;;;;;;6309379;22;20127;-62
2022/04/23 11:26:26;;;;;;;6.47;5.82;;;;;;;;;;6309791;22;20169;-64
2022/04/23 11:29:02;;;;;;;6.50;5.78;;;;;;;;;;6309364;22;20190;-62
2022/04/23 11:31:28;;;;;;;6.75;5.43;;;;;;;;;;6309888;22;20184;-63
2022/04/23 11:33:56;;;;;;;5.75;5.13;;;;;;;;;;6309360;22;20138;-62
2022/04/23 11:36:30;;;;;;;5.20;4.70;;;;;;;;;;6309111;22;20217;-64
2022/04/23 11:38:56;;;;;;;5.30;4.80;;;;;;;;;;6309246;22;20168;-64
2022/04/23 11:41:28;;;;;;;7.00;4.75;;;;;;;;;;6309469;22;20146;-64
2022/04/23 11:43:54;;;;;;;5.15;4.65;;;;;;;;;;6309869;22;20142;-64
2022/04/23 11:46:20;;;;;;;5.43;4.93;;;;;;;;;;6308947;22;20449;-63
2022/04/23 11:48:47;;;;;;;5.30;4.80;;;;;;;;;;6309048;22;20367;-64
2022/04/23 11:51:14;;;;;;;4.85;4.45;;;;;;;;;;6309434;22;20230;-64
2022/04/23 11:53:52;;;;;;;5.30;4.80;;;;;;;;;;6309318;22;20135;-64
2022/04/23 11:56:29;;;;;;;4.53;4.13;;;;;;;;;;6309470;22;20138;-64
2022/04/23 11:58:56;;;;;;;6.25;4.28;;;;;;;;;;6309213;22;20224;-64
2022/04/23 12:01:23;;;;;;;5.55;5.05;;;;;;;;;;6309004;22;20589;-64
2022/04/23 12:03:50;;;;;;;5.95;5.00;;;;;;;;;;6309137;22;20146;-64
2022/04/23 12:06:16;;;;;;;5.10;4.60;;;;;;;;;;6309345;22;20146;-64
2022/04/23 12:08:42;;;;;;;5.50;4.80;;;;;;;;;;6308759;22;20162;-64
2022/04/23 12:11:27;;;;;;;4.95;4.55;;;;;;;;;;6309124;22;20453;-64
2022/04/23 12:13:53;;;;;;;6.70;4.72;;;;;;;;;;6308977;22;20199;-64
2022/04/23 12:16:38;;;;;;;5.25;4.40;;;;;;;;;;6308836;22;20225;-64
2022/04/23 12:19:09;;;;;;;5.53;4.40;;;;;;;;;;6308814;22;20153;-64
2022/04/23 12:21:35;;;;;;;6.03;4.70;;;;;;;;;;6308911;22;20134;-63
2022/04/23 12:24:01;;;;;;;5.35;4.50;;;;;;;;;;6308513;22;20143;-63
2022/04/23 12:26:38;;;;;;;4.40;4.00;;;;;;;;;;6308044;22;20169;-63
2022/04/23 12:43:14;;;;;;;5.07;4.18;;;;;;;;;;6308584;22;20484;-63
2022/04/23 12:45:40;;;;;;;4.68;4.28;;;;;;;;;;6308298;22;20152;-64
2022/04/23 12:48:07;;;;;;;5.57;4.18;;;;;;;;;;6308632;22;20483;-63
2022/04/23 12:50:33;;;;;;;4.65;4.25;;;;;;;;;;6281646;22;20146;-64
2022/04/23 12:52:59;;;;;;;5.10;4.60;;;;;;;;;;6308847;22;20199;-64
2022/04/23 12:55:27;;;;;;;4.93;4.45;;;;;;;;;;6308360;22;20143;-63
2022/04/23 12:58:13;;;;;;;5.22;4.40;;;;;;;;;;6309278;22;20142;-63
2022/04/23 13:00:41;;;;;;;4.90;4.40;;;;;;;;;;6310294;22;20149;-63
2022/04/23 13:03:19;;;;;;;4.85;4.20;;;;;;;;;;6309942;22;20147;-63
2022/04/23 13:05:45;;;;;;;5.18;3.83;;;;;;;;;;6308856;22;20130;-63
2022/04/23 13:10:58;;;;;;;4.47;4.07;;;;;;;;;;6308238;22;20430;-63
2022/04/23 13:13:24;;;;;;;4.47;4.07;;;;;;;;;;6308838;22;20225;-63
2022/04/23 13:15:50;;;;;;;4.60;4.18;;;;;;;;;;6308174;22;20177;-63
2022/04/23 13:18:16;;;;;;;4.28;3.88;;;;;;;;;;6308204;22;20139;-63
2022/04/23 13:20:42;;;;;;;4.63;4.00;;;;;;;;;;6308113;22;20449;-64
2022/04/23 13:23:08;;;;;;;4.72;4.00;;;;;;;;;;6308159;22;20477;-64
2022/04/23 13:25:35;;;;;;;5.13;4.18;;;;;;;;;;6308972;22;20335;-64
2022/04/23 13:28:01;;;;;;;4.53;4.13;;;;;;;;;;6308289;22;20142;-63
2022/04/23 13:30:26;;;;;;;4.13;3.78;;;;;;;;;;6308144;22;20161;-64
2022/04/23 13:32:52;;;;;;;5.60;3.78;;;;;;;;;;6308611;22;20142;-64
2022/04/23 13:35:20;;;;;;;4.25;3.70;;;;;;;;;;6308100;22;20135;-64
2022/04/23 13:37:46;;;;;;;3.75;3.45;;;;;;;;;;6310413;22;20142;-63
2022/04/23 13:40:12;;;;;;;4.03;3.50;;;;;;;;;;6310451;22;20207;-63
2022/04/23 13:42:39;;;;;;;3.92;3.63;;;;;;;;;;6310471;22;20235;-64
2022/04/23 13:45:06;;;;;;;3.75;3.45;;;;;;;;;;6310456;22;20176;-62
2022/04/23 13:47:33;;;;;;;4.13;3.60;;;;;;;;;;6310517;22;20149;-62
2022/04/23 13:49:59;;;;;;;4.10;3.70;;;;;;;;;;6310347;22;20174;-63
2022/04/23 13:52:25;;;;;;;3.83;3.03;;;;;;;;;;6310267;22;20162;-63
2022/04/23 13:54:50;;;;;;;3.67;3.38;;;;;;;;;;6310669;22;20138;-63
2022/04/23 13:57:16;;;;;;;4.63;3.90;;;;;;;;;;6309999;22;20177;-63
2022/04/23 13:59:42;;;;;;;4.05;3.65;;;;;;;;;;6310195;22;20213;-63
2022/04/23 14:10:22;;;;;;;5.40;4.05;;;;;;;;;;6310034;22;20173;-64
2022/04/23 14:12:48;;;;;;;3.70;3.40;;;;;;;;;;6309980;22;20150;-64
2022/04/23 14:15:14;;;;;;;5.95;3.55;;;;;;;;;;6310490;22;20142;-64
2022/04/23 14:17:40;;;;;;;4.22;3.53;;;;;;;;;;6310302;22;20135;-63
2022/04/23 14:20:06;;;;;;;3.40;3.10;;;;;;;;;;6309968;22;20530;-63
2022/04/23 14:22:32;;;;;;;4.05;3.65;;;;;;;;;;6310921;22;20138;-63
2022/04/23 14:25:01;;;;;;;3.90;3.47;;;;;;;;;;6312103;22;20311;-61
2022/04/23 14:27:28;;;;;;;3.97;3.30;;;;;;;;;;6311863;22;20157;-62
2022/04/23 14:29:54;;;;;;;4.25;3.42;;;;;;;;;;6311435;22;20174;-62
2022/04/23 14:32:20;;;;;;;3.78;3.22;;;;;;;;;;6311273;22;20145;-64
2022/04/23 14:34:47;;;;;;;3.08;2.88;;;;;;;;;;6311806;22;20134;-63
2022/04/23 14:37:14;;;;;;;3.45;3.15;;;;;;;;;;6311621;22;20557;-61
2022/04/23 14:39:40;;;;;;;4.10;2.88;;;;;;;;;;6311232;22;20143;-62
2022/04/23 14:42:06;;;;;;;3.85;3.05;;;;;;;;;;6311128;22;20169;-63
2022/04/23 14:44:32;;;;;;;3.75;3.22;;;;;;;;;;6311954;22;20204;-62
2022/04/23 14:47:00;;;;;;;5.35;3.38;;;;;;;;;;6311343;22;20207;-62
2022/04/23 14:49:26;;;;;;;4.20;3.40;;;;;;;;;;6310892;22;20169;-63
2022/04/23 14:54:36;;;;;;;4.57;3.42;;;;;;;;;;6311332;22;20137;-62
2022/04/23 14:57:03;;;;;;;3.35;3.00;;;;;;;;;;6311932;22;20139;-62
2022/04/23 14:59:29;;;;;;;3.45;3.08;;;;;;;;;;6317923;22;20231;-63
2022/04/23 15:01:55;;;;;;;3.65;2.92;;;;;;;;;;6316144;22;20152;-62
2022/04/23 15:04:22;;;;;;;4.05;3.20;;;;;;;;;;6316542;22;20153;-63
2022/04/23 15:06:48;;;;;;;3.65;3.05;;;;;;;;;;6318083;22;20138;-62
2022/04/23 15:09:14;;;;;;;3.90;3.50;;;;;;;;;;6317997;22;20166;-62
2022/04/23 15:11:40;;;;;;;4.45;3.28;;;;;;;;;;6318846;22;20147;-63
2022/04/23 15:14:06;;;;;;;4.57;3.28;;;;;;;;;;6311180;22;20573;-63
2022/04/23 15:16:32;;;;;;;3.58;3.00;;;;;;;;;;6310918;22;20174;-63
2022/04/23 15:18:58;;;;;;;2.80;2.60;;;;;;;;;;6311212;22;20139;-63
2022/04/23 15:21:24;;;;;;;4.28;3.10;;;;;;;;;;6311135;22;20154;-63
2022/04/23 15:23:50;;;;;;;4.85;2.83;;;;;;;;;;6310733;22;20569;-62